Time;durP1;ratioP1;P1;durP2;ratioP2;P2;SDS_P1;SDS_P2;PMS_P1;PMS_P2;Temp;Humidity;BMP_temperature;BMP_pressure;BME280_temperature;BME280_humidity;BME280_pressure;Samples;Min_cycle;Max_cycle;Signal;HPM_P1;HPM_P2
2023/12/17 00:01:05;;;;;;;13.13;5.72;;;10.00;99.90;;;;;;4912918;29;20055;-78
2023/12/17 00:03:31;;;;;;;13.75;4.95;;;9.40;99.90;;;;;;4916329;29;20074;-80
2023/12/17 00:05:56;;;;;;;13.82;5.65;;;9.50;99.90;;;;;;4915010;29;20071;-90
2023/12/17 00:08:22;;;;;;;15.80;5.90;;;9.80;99.90;;;;;;4914935;29;20059;-79
2023/12/17 00:10:52;;;;;;;14.30;5.28;;;9.90;99.90;;;;;;4909590;29;20523;-81
2023/12/17 00:13:18;;;;;;;12.45;5.43;;;9.50;99.90;;;;;;4915586;29;20444;-83
2023/12/17 00:15:44;;;;;;;15.75;6.53;;;9.50;99.90;;;;;;4915453;29;20052;-77
2023/12/17 00:18:11;;;;;;;16.50;5.75;;;9.50;99.90;;;;;;4902440;29;20097;-82
2023/12/17 00:20:38;;;;;;;16.77;6.18;;;9.50;99.90;;;;;;4914244;29;20048;-80
2023/12/17 00:23:04;;;;;;;16.73;6.38;;;9.50;99.90;;;;;;4914342;29;20060;-79
2023/12/17 00:25:30;;;;;;;17.17;5.85;;;10.00;99.90;;;;;;4915193;29;20052;-77
2023/12/17 00:27:56;;;;;;;13.60;5.40;;;9.50;99.90;;;;;;4911539;29;20143;-77
2023/12/17 00:30:22;;;;;;;15.82;5.93;;;9.50;99.90;;;;;;4914074;29;20521;-80
2023/12/17 00:32:48;;;;;;;12.95;5.65;;;9.50;99.90;;;;;;4914235;29;20167;-76
2023/12/17 00:35:13;;;;;;;13.25;5.43;;;9.50;99.90;;;;;;4913938;29;20048;-77
2023/12/17 00:37:39;;;;;;;13.45;5.93;;;9.60;99.90;;;;;;4914890;29;20129;-77
2023/12/17 00:40:06;;;;;;;17.50;6.20;;;9.70;99.90;;;;;;4913239;29;20393;-78
2023/12/17 00:42:32;;;;;;;14.93;5.15;;;9.50;99.90;;;;;;4915468;29;20070;-78
2023/12/17 00:44:58;;;;;;;13.45;5.93;;;9.60;99.90;;;;;;4911818;29;20052;-77
2023/12/17 00:47:24;;;;;;;12.27;5.82;;;9.60;99.90;;;;;;4908903;29;20408;-81
2023/12/17 00:49:49;;;;;;;12.75;5.95;;;9.60;99.90;;;;;;4913808;29;20432;-79
2023/12/17 00:52:15;;;;;;;16.13;5.30;;;9.50;99.90;;;;;;4913823;29;20179;-78
2023/12/17 00:54:41;;;;;;;10.63;5.13;;;9.50;99.90;;;;;;4914872;29;20381;-80
2023/12/17 00:57:06;;;;;;;10.27;5.28;;;9.80;99.90;;;;;;4902227;29;20043;-76
2023/12/17 00:59:32;;;;;;;9.90;5.20;;;9.60;99.90;;;;;;4915224;29;20052;-86
2023/12/17 01:01:57;;;;;;;14.50;5.60;;;9.60;99.90;;;;;;4914348;29;20128;-83
2023/12/17 01:04:23;;;;;;;12.75;5.90;;;9.70;99.90;;;;;;4913821;29;20586;-77
2023/12/17 01:06:49;;;;;;;13.13;4.78;;;9.50;99.90;;;;;;4914395;29;20036;-79
2023/12/17 01:09:15;;;;;;;15.20;5.43;;;9.50;99.90;;;;;;4914789;29;20048;-76
2023/12/17 01:11:42;;;;;;;13.48;5.20;;;9.50;99.90;;;;;;4914506;29;20131;-89
2023/12/17 01:14:08;;;;;;;11.75;5.25;;;9.50;99.90;;;;;;4913937;29;20051;-87
2023/12/17 01:16:33;;;;;;;17.75;5.90;;;9.60;99.90;;;;;;4914952;29;20166;-78
2023/12/17 01:18:59;;;;;;;14.27;5.80;;;9.90;99.90;;;;;;4909149;29;20572;-76
2023/12/17 01:21:24;;;;;;;11.13;5.60;;;10.00;99.90;;;;;;4913477;29;20492;-76
2023/12/17 01:23:50;;;;;;;14.30;5.80;;;9.50;99.90;;;;;;4914589;29;20100;-80
2023/12/17 01:26:20;;;;;;;12.18;5.03;;;9.50;99.90;;;;;;4914706;29;20067;-81
2023/12/17 01:28:47;;;;;;;15.57;5.55;;;9.50;99.90;;;;;;4911988;29;20056;-77
2023/12/17 01:31:13;;;;;;;12.73;6.10;;;9.90;99.90;;;;;;4913519;29;20568;-78
2023/12/17 01:33:39;;;;;;;15.60;6.35;;;9.70;99.90;;;;;;4914414;29;20060;-81
2023/12/17 01:36:05;;;;;;;14.88;6.07;;;9.50;99.90;;;;;;4914373;29;20103;-77
2023/12/17 01:38:30;;;;;;;22.50;5.95;;;9.50;99.90;;;;;;4910920;29;20140;-85
2023/12/17 01:40:56;;;;;;;15.45;5.55;;;9.50;99.90;;;;;;4905851;29;20044;-82
2023/12/17 01:43:21;;;;;;;15.07;5.35;;;9.50;99.90;;;;;;4913886;29;20477;-79
2023/12/17 01:45:47;;;;;;;11.60;5.20;;;10.00;99.90;;;;;;4912866;29;20571;-76
2023/12/17 01:48:13;;;;;;;13.00;5.90;;;9.50;99.90;;;;;;4903784;29;20468;-77
2023/12/17 01:50:39;;;;;;;14.38;5.10;;;10.00;99.90;;;;;;4902073;29;20036;-79
2023/12/17 01:53:05;;;;;;;18.73;5.53;;;10.00;99.90;;;;;;4913887;29;20412;-80
2023/12/17 01:55:31;;;;;;;12.25;5.22;;;9.50;99.90;;;;;;4914203;29;20052;-79
2023/12/17 01:57:57;;;;;;;13.73;5.20;;;9.50;99.90;;;;;;4911134;29;20056;-75
2023/12/17 02:00:24;;;;;;;16.13;5.30;;;9.50;99.90;;;;;;4896788;29;20048;-81
2023/12/17 02:02:49;;;;;;;13.82;5.57;;;9.60;99.90;;;;;;4914368;29;20114;-83
2023/12/17 02:05:15;;;;;;;14.77;5.32;;;9.50;99.90;;;;;;4914082;29;20079;-85
2023/12/17 02:07:41;;;;;;;13.82;5.55;;;9.50;99.90;;;;;;4917656;29;20079;-81
2023/12/17 02:10:07;;;;;;;14.50;5.40;;;9.50;99.90;;;;;;4911631;29;20047;-85
2023/12/17 02:12:33;;;;;;;14.75;5.70;;;9.50;99.90;;;;;;4918067;29;20187;-76
2023/12/17 02:14:58;;;;;;;13.65;5.47;;;10.00;99.90;;;;;;4917808;29;20138;-80
2023/12/17 02:17:31;;;;;;;13.05;4.93;;;9.50;99.90;;;;;;4917747;29;20119;-76
2023/12/17 02:19:57;;;;;;;12.80;4.97;;;9.70;99.90;;;;;;4914845;29;20135;-79
2023/12/17 02:22:23;;;;;;;10.70;5.22;;;9.50;99.90;;;;;;4917556;29;20143;-77
2023/12/17 02:24:50;;;;;;;14.30;4.93;;;9.60;99.90;;;;;;4917923;29;20095;-76
2023/12/17 02:27:21;;;;;;;11.63;4.82;;;9.50;99.90;;;;;;4916153;29;20420;-80
2023/12/17 02:29:47;;;;;;;13.15;4.53;;;9.60;99.90;;;;;;4915658;29;20677;-76
2023/12/17 02:32:14;;;;;;;10.60;4.78;;;9.70;99.90;;;;;;4882002;29;20131;-78
2023/12/17 02:34:40;;;;;;;14.57;5.00;;;10.20;99.90;;;;;;4913724;29;20075;-84
2023/12/17 02:37:05;;;;;;;10.98;4.03;;;9.90;99.90;;;;;;4916158;29;20090;-85
2023/12/17 02:39:31;;;;;;;11.80;4.38;;;9.50;99.90;;;;;;4917651;29;20572;-82
2023/12/17 02:41:58;;;;;;;13.00;4.35;;;9.90;99.90;;;;;;4915756;29;20048;-91
2023/12/17 02:44:24;;;;;;;10.75;4.75;;;9.60;99.90;;;;;;4917534;29;20052;-77
2023/12/17 02:46:49;;;;;;;10.60;5.18;;;9.80;99.90;;;;;;4916811;29;20502;-78
2023/12/17 02:49:15;;;;;;;12.98;4.63;;;10.00;99.90;;;;;;4915676;29;20052;-86
2023/12/17 02:51:41;;;;;;;9.65;4.05;;;9.50;99.90;;;;;;4900175;29;20064;-77
2023/12/17 02:54:06;;;;;;;15.48;5.05;;;9.80;99.90;;;;;;4916808;29;20040;-87
2023/12/17 02:56:41;;;;;;;11.90;4.78;;;9.50;99.90;;;;;;4915822;29;20048;-79
2023/12/17 02:59:11;;;;;;;15.70;4.20;;;9.50;99.90;;;;;;4915933;29;20044;-86
2023/12/17 03:01:39;;;;;;;14.27;4.75;;;9.50;99.90;;;;;;4914671;29;20460;-86
2023/12/17 03:04:05;;;;;;;11.75;5.47;;;9.60;99.90;;;;;;4912518;29;20056;-87
2023/12/17 03:06:31;;;;;;;14.68;5.10;;;9.90;99.90;;;;;;4917430;29;20175;-92
2023/12/17 03:08:56;;;;;;;10.55;4.78;;;9.50;99.90;;;;;;4917040;29;20547;-86
2023/12/17 03:11:22;;;;;;;12.10;4.70;;;9.50;99.90;;;;;;4917111;29;20578;-89
2023/12/17 03:13:48;;;;;;;15.18;5.22;;;9.80;99.90;;;;;;4916079;29;20082;-89
2023/12/17 03:16:13;;;;;;;13.55;4.88;;;9.50;99.90;;;;;;4915451;29;20892;-76
2023/12/17 03:18:39;;;;;;;17.67;4.95;;;9.50;99.90;;;;;;4915800;29;20040;-79
2023/12/17 03:21:07;;;;;;;10.98;4.43;;;9.50;99.90;;;;;;4915539;29;20067;-83
2023/12/17 03:23:33;;;;;;;12.90;4.32;;;9.50;99.90;;;;;;4911911;29;20103;-79
2023/12/17 03:25:58;;;;;;;11.60;4.90;;;9.50;99.90;;;;;;4916671;29;20068;-79
2023/12/17 03:28:24;;;;;;;15.50;5.03;;;9.60;99.90;;;;;;4916497;29;20095;-76
2023/12/17 03:30:49;;;;;;;15.35;4.60;;;10.20;99.90;;;;;;4916209;29;20128;-77
2023/12/17 03:33:15;;;;;;;13.48;4.63;;;10.00;99.90;;;;;;4914891;29;20052;-79
2023/12/17 03:35:41;;;;;;;10.93;4.80;;;9.90;99.90;;;;;;4915137;29;20080;-85
2023/12/17 03:38:06;;;;;;;17.73;5.22;;;9.80;99.90;;;;;;4916477;29;20050;-82
2023/12/17 03:40:33;;;;;;;18.42;5.70;;;9.60;99.90;;;;;;4916184;29;20055;-85
2023/12/17 03:42:59;;;;;;;14.45;5.82;;;9.50;99.90;;;;;;4915925;29;20059;-76
2023/12/17 03:45:25;;;;;;;15.07;6.43;;;9.70;99.90;;;;;;4905846;29;20088;-79
2023/12/17 03:47:51;;;;;;;20.23;6.60;;;10.10;99.90;;;;;;4914974;29;20075;-77
2023/12/17 03:50:18;;;;;;;13.32;6.20;;;9.50;99.90;;;;;;4915838;29;20500;-76
2023/12/17 03:52:47;;;;;;;15.40;6.47;;;9.70;99.90;;;;;;4915986;29;20512;-77
2023/12/17 03:55:14;;;;;;;17.20;7.72;;;9.50;99.90;;;;;;4915537;29;20135;-77
2023/12/17 03:57:40;;;;;;;15.32;6.50;;;9.40;99.90;;;;;;4916303;29;20048;-76
2023/12/17 04:00:06;;;;;;;15.88;7.43;;;9.40;99.90;;;;;;4915882;29;20071;-83
2023/12/17 04:02:32;;;;;;;19.23;7.45;;;9.40;99.90;;;;;;4912711;29;20079;-77
2023/12/17 04:04:58;;;;;;;16.13;7.53;;;9.40;99.90;;;;;;4913822;29;20056;-77
2023/12/17 04:07:26;;;;;;;16.02;7.68;;;9.50;99.90;;;;;;4902062;29;20108;-76
2023/12/17 04:09:52;;;;;;;17.75;7.55;;;9.30;99.90;;;;;;4897140;29;20068;-79
2023/12/17 04:12:18;;;;;;;25.88;8.20;;;9.30;99.90;;;;;;4890590;29;20049;-88
2023/12/17 04:14:44;;;;;;;18.60;7.65;;;9.60;99.90;;;;;;4908447;29;20047;-77
2023/12/17 04:17:10;;;;;;;16.33;6.80;;;9.50;99.90;;;;;;4899830;29;20109;-75
2023/12/17 04:19:35;;;;;;;16.38;7.25;;;9.40;99.90;;;;;;4914560;29;20472;-79
2023/12/17 04:22:01;;;;;;;16.23;6.80;;;9.30;99.90;;;;;;4913299;29;20055;-86
2023/12/17 04:24:27;;;;;;;19.02;7.70;;;9.40;99.90;;;;;;4912106;29;20079;-77
2023/12/17 04:26:52;;;;;;;18.77;7.20;;;9.50;99.90;;;;;;4913300;29;20048;-77
2023/12/17 04:29:18;;;;;;;20.75;7.45;;;9.30;99.90;;;;;;4914669;29;20458;-79
2023/12/17 04:31:44;;;;;;;22.38;7.40;;;9.40;99.90;;;;;;4910022;29;20044;-76
2023/12/17 04:34:11;;;;;;;23.80;8.38;;;9.30;99.90;;;;;;4913564;29;20115;-78
2023/12/17 04:36:37;;;;;;;18.83;7.70;;;9.40;99.90;;;;;;4915185;29;20067;-81
2023/12/17 04:39:03;;;;;;;20.38;7.38;;;9.30;99.90;;;;;;4905716;29;20409;-82
2023/12/17 04:41:29;;;;;;;17.58;6.95;;;9.40;99.90;;;;;;4904697;29;20059;-76
2023/12/17 04:43:54;;;;;;;18.45;7.63;;;9.40;99.90;;;;;;4906015;29;20056;-83
2023/12/17 04:46:21;;;;;;;20.52;7.90;;;9.40;99.90;;;;;;4909475;29;20052;-77
2023/12/17 04:48:46;;;;;;;20.25;7.80;;;9.40;99.90;;;;;;4907497;29;20051;-77
2023/12/17 04:51:12;;;;;;;21.95;7.43;;;9.40;99.90;;;;;;4908135;29;20412;-78
2023/12/17 04:53:38;;;;;;;18.42;6.90;;;9.40;99.90;;;;;;4907113;29;20538;-78
2023/12/17 04:56:04;;;;;;;17.67;7.13;;;9.40;99.90;;;;;;4913550;29;20048;-80
2023/12/17 04:58:29;;;;;;;16.95;7.40;;;9.40;99.90;;;;;;4900679;29;20559;-76
2023/12/17 05:00:59;;;;;;;17.45;7.18;;;9.80;99.90;;;;;;4914877;29;20052;-79
2023/12/17 05:03:25;;;;;;;19.85;6.68;;;9.30;99.90;;;;;;4914369;29;20123;-84
2023/12/17 05:05:51;;;;;;;13.05;5.80;;;9.40;99.90;;;;;;4901744;29;20063;-83
2023/12/17 05:08:17;;;;;;;13.23;6.68;;;9.80;99.90;;;;;;4914470;29;20048;-76
2023/12/17 05:10:43;;;;;;;16.75;6.90;;;9.40;99.90;;;;;;4914875;29;20066;-78
2023/12/17 05:13:08;;;;;;;15.68;6.78;;;9.30;99.90;;;;;;4914265;29;20095;-74
2023/12/17 05:15:34;;;;;;;19.58;7.25;;;9.30;99.90;;;;;;4897252;29;20147;-77
2023/12/17 05:18:00;;;;;;;17.33;7.20;;;9.30;99.90;;;;;;4909920;29;20470;-77
2023/12/17 05:20:26;;;;;;;18.30;7.00;;;9.30;99.90;;;;;;4913707;29;20044;-81
2023/12/17 05:22:51;;;;;;;15.23;7.32;;;9.80;99.90;;;;;;4897323;29;20044;-78
2023/12/17 05:25:17;;;;;;;17.77;8.10;;;9.30;99.90;;;;;;4912287;29;20063;-76
2023/12/17 05:27:43;;;;;;;15.18;5.95;;;9.30;99.90;;;;;;4895511;29;20112;-77
2023/12/17 05:30:09;;;;;;;13.95;5.93;;;9.30;99.90;;;;;;4894860;29;20067;-78
2023/12/17 05:32:35;;;;;;;11.60;5.97;;;9.20;99.90;;;;;;4896994;29;20127;-77
2023/12/17 05:35:01;;;;;;;12.18;6.88;;;9.30;99.90;;;;;;4901289;29;20050;-92
2023/12/17 05:37:26;;;;;;;14.52;6.60;;;9.40;99.90;;;;;;4902135;29;20130;-89
2023/12/17 05:39:52;;;;;;;17.73;7.50;;;9.20;99.90;;;;;;4896000;29;20052;-80
2023/12/17 05:42:17;;;;;;;17.60;8.45;;;9.20;99.90;;;;;;4894794;29;20463;-79
2023/12/17 05:44:43;;;;;;;18.50;7.43;;;9.20;99.90;;;;;;4895872;29;20711;-78
2023/12/17 05:47:08;;;;;;;10.75;6.40;;;9.20;99.90;;;;;;4906868;29;20079;-75
2023/12/17 05:49:40;;;;;;;16.20;8.43;;;9.60;99.90;;;;;;4899227;29;20053;-82
2023/12/17 05:52:07;;;;;;;16.35;7.68;;;9.20;99.90;;;;;;4903364;29;20086;-76
2023/12/17 05:54:33;;;;;;;18.25;7.93;;;9.50;99.90;;;;;;4898269;29;20101;-85
2023/12/17 05:56:59;;;;;;;17.83;7.82;;;9.50;99.90;;;;;;4895837;29;20080;-81
2023/12/17 05:59:25;;;;;;;15.95;8.18;;;9.20;99.90;;;;;;4909064;29;20060;-79
2023/12/17 06:01:50;;;;;;;15.15;8.40;;;9.40;99.90;;;;;;4904370;29;20052;-80
2023/12/17 06:04:16;;;;;;;15.75;9.20;;;9.30;99.90;;;;;;4900871;29;20040;-76
2023/12/17 06:06:42;;;;;;;21.65;10.40;;;9.60;99.90;;;;;;4904991;29;20045;-80
2023/12/17 06:09:08;;;;;;;19.35;10.93;;;9.60;99.90;;;;;;4900418;29;20049;-83
2023/12/17 06:11:33;;;;;;;21.00;10.15;;;9.20;99.90;;;;;;4898700;29;20802;-77
2023/12/17 06:13:59;;;;;;;17.50;10.43;;;9.20;99.90;;;;;;4908840;29;20056;-80
2023/12/17 06:16:25;;;;;;;13.52;9.57;;;9.20;99.90;;;;;;4898513;29;20044;-77
2023/12/17 06:18:53;;;;;;;18.63;9.73;;;9.50;99.90;;;;;;4903483;29;20143;-78
2023/12/17 06:21:23;;;;;;;20.20;9.10;;;9.30;99.90;;;;;;4899195;29;20045;-75
2023/12/17 06:23:50;;;;;;;22.65;9.68;;;9.10;99.90;;;;;;4883075;29;20611;-75
2023/12/17 06:26:19;;;;;;;22.27;9.07;;;9.10;99.90;;;;;;4898799;29;20064;-82
2023/12/17 06:28:45;;;;;;;19.08;8.90;;;9.10;99.90;;;;;;4900421;29;20181;-77
2023/12/17 06:31:11;;;;;;;14.63;8.70;;;9.20;99.90;;;;;;4894311;29;20057;-78
2023/12/17 06:33:36;;;;;;;19.45;8.57;;;9.10;99.90;;;;;;4899178;29;20044;-74
2023/12/17 06:36:03;;;;;;;20.83;8.73;;;9.20;99.90;;;;;;4897134;29;20044;-78
2023/12/17 06:38:28;;;;;;;22.55;8.98;;;9.20;99.90;;;;;;4907529;29;20049;-90
2023/12/17 06:40:54;;;;;;;16.80;7.78;;;9.10;99.90;;;;;;4906419;29;20044;-83
2023/12/17 06:43:20;;;;;;;15.00;7.72;;;9.10;99.90;;;;;;4899222;29;20057;-78
2023/12/17 06:45:46;;;;;;;19.50;7.75;;;9.10;99.90;;;;;;4896151;29;20044;-77
2023/12/17 06:48:11;;;;;;;13.60;5.95;;;9.10;99.90;;;;;;4898327;29;20492;-80
2023/12/17 06:50:37;;;;;;;15.10;5.57;;;9.10;99.90;;;;;;4911057;29;20047;-77
2023/12/17 06:53:03;;;;;;;15.18;6.72;;;9.10;99.90;;;;;;4914848;29;20095;-79
2023/12/17 06:55:28;;;;;;;12.63;6.18;;;9.10;99.90;;;;;;4930512;29;20511;-80
2023/12/17 06:57:54;;;;;;;20.25;6.78;;;9.10;99.90;;;;;;4918482;29;20056;-79
2023/12/17 07:00:20;;;;;;;18.95;7.18;;;9.10;99.90;;;;;;4880910;29;20405;-86
2023/12/17 07:02:45;;;;;;;20.30;6.47;;;9.10;99.90;;;;;;4902113;29;20040;-80
2023/12/17 07:05:11;;;;;;;17.92;6.35;;;9.30;99.90;;;;;;4898075;29;20051;-76
2023/12/17 07:07:37;;;;;;;17.00;6.18;;;9.10;99.90;;;;;;4899717;29;20040;-82
2023/12/17 07:10:03;;;;;;;15.93;6.72;;;9.10;99.90;;;;;;4905549;29;20036;-79
2023/12/17 07:12:29;;;;;;;15.73;7.10;;;9.10;99.90;;;;;;4907143;29;20079;-75
2023/12/17 07:14:55;;;;;;;21.33;6.55;;;9.20;99.90;;;;;;4910990;29;20476;-77
2023/12/17 07:17:21;;;;;;;18.70;6.63;;;9.10;99.90;;;;;;4915577;29;20507;-87
2023/12/17 07:19:46;;;;;;;18.23;7.30;;;9.10;99.90;;;;;;4916866;29;20055;-83
2023/12/17 07:22:12;;;;;;;19.08;7.50;;;9.50;99.90;;;;;;4908435;29;20084;-90
2023/12/17 07:24:38;;;;;;;20.65;7.50;;;9.10;99.90;;;;;;4903300;29;20061;-79
2023/12/17 07:27:03;;;;;;;15.23;8.32;;;9.40;99.90;;;;;;4897573;29;20593;-77
2023/12/17 07:29:29;;;;;;;20.33;7.75;;;9.10;99.90;;;;;;4904016;29;20112;-76
2023/12/17 07:31:55;;;;;;;24.23;7.60;;;9.10;99.90;;;;;;4903109;29;20048;-80
2023/12/17 07:34:20;;;;;;;14.70;7.57;;;9.40;99.90;;;;;;4896400;29;20113;-80
2023/12/17 07:36:46;;;;;;;17.25;7.30;;;9.00;99.90;;;;;;4914583;29;20047;-86
2023/12/17 07:39:12;;;;;;;17.83;6.30;;;9.00;99.90;;;;;;4899663;29;20051;-76
2023/12/17 07:41:38;;;;;;;21.05;7.60;;;9.00;99.90;;;;;;4898473;29;20075;-77
2023/12/17 07:44:04;;;;;;;18.67;8.65;;;9.10;99.90;;;;;;4902722;29;20048;-83
2023/12/17 07:46:30;;;;;;;21.52;7.30;;;9.00;99.90;;;;;;4904110;29;20111;-75
2023/12/17 07:48:55;;;;;;;16.48;8.10;;;9.00;99.90;;;;;;4909723;29;20454;-76
2023/12/17 07:51:21;;;;;;;16.77;8.73;;;9.50;99.90;;;;;;4900874;29;20063;-77
2023/12/17 07:53:47;;;;;;;17.35;7.88;;;9.00;99.90;;;;;;4902201;29;20052;-77
2023/12/17 07:56:13;;;;;;;19.77;8.80;;;9.30;99.90;;;;;;4905552;29;20043;-77
2023/12/17 07:58:39;;;;;;;19.77;6.55;;;9.00;99.90;;;;;;4889118;29;20535;-79
2023/12/17 08:01:05;;;;;;;15.70;7.32;;;9.00;99.90;;;;;;4907341;29;20132;-83
2023/12/17 08:03:31;;;;;;;27.13;8.38;;;9.00;99.90;;;;;;4907450;29;20508;-89
2023/12/17 08:05:57;;;;;;;19.33;8.35;;;8.90;99.90;;;;;;4905817;29;20044;-93
2023/12/17 08:08:22;;;;;;;23.27;8.77;;;9.00;99.90;;;;;;4903348;29;20032;-89
2023/12/17 08:10:48;;;;;;;19.85;8.10;;;8.90;99.90;;;;;;4903851;29;20048;-78
2023/12/17 08:13:15;;;;;;;18.70;7.60;;;9.40;99.90;;;;;;4900152;29;20064;-84
2023/12/17 08:15:41;;;;;;;22.00;8.20;;;8.90;99.90;;;;;;4911858;29;20071;-77
2023/12/17 08:18:06;;;;;;;23.88;8.82;;;9.00;99.90;;;;;;4901761;29;20052;-79
2023/12/17 08:20:32;;;;;;;14.52;9.35;;;9.30;99.90;;;;;;4903818;29;20400;-83
2023/12/17 08:22:57;;;;;;;19.55;9.57;;;8.90;99.90;;;;;;4896296;29;20052;-76
2023/12/17 08:25:23;;;;;;;19.45;9.95;;;8.90;99.90;;;;;;4906895;29;20057;-90
2023/12/17 08:27:48;;;;;;;19.60;10.27;;;8.90;99.90;;;;;;4898109;29;20108;-77
2023/12/17 08:30:14;;;;;;;19.65;10.10;;;8.90;99.90;;;;;;4901109;29;20051;-77
2023/12/17 08:32:40;;;;;;;22.23;11.40;;;8.80;99.90;;;;;;4901362;29;20055;-82
2023/12/17 08:35:06;;;;;;;26.13;12.10;;;9.20;99.90;;;;;;4898291;29;20044;-84
2023/12/17 08:37:32;;;;;;;24.45;12.45;;;8.80;99.90;;;;;;4898038;29;20140;-77
2023/12/17 08:39:57;;;;;;;30.90;13.13;;;8.80;99.90;;;;;;4904834;29;20135;-78
2023/12/17 08:42:23;;;;;;;26.50;13.35;;;8.90;99.90;;;;;;4896515;29;20045;-88
2023/12/17 08:44:49;;;;;;;26.33;14.25;;;9.20;99.90;;;;;;4903161;29;21019;-78
2023/12/17 08:47:15;;;;;;;27.45;14.15;;;8.90;99.90;;;;;;4898644;29;20051;-76
2023/12/17 08:49:42;;;;;;;32.53;15.88;;;8.80;99.90;;;;;;4897137;29;20088;-75
2023/12/17 08:52:07;;;;;;;28.85;16.73;;;8.90;99.90;;;;;;4895897;29;20055;-79
2023/12/17 08:54:33;;;;;;;30.58;15.45;;;8.90;99.90;;;;;;4903259;29;20127;-76
2023/12/17 08:56:58;;;;;;;33.95;16.23;;;8.90;99.90;;;;;;4900169;29;20048;-88
2023/12/17 08:59:24;;;;;;;31.15;14.95;;;9.30;99.90;;;;;;4910268;29;20120;-79
2023/12/17 09:01:50;;;;;;;31.20;16.90;;;8.90;99.90;;;;;;4905090;29;20052;-79
2023/12/17 09:04:19;;;;;;;33.03;17.42;;;8.90;99.90;;;;;;4906581;29;20095;-84
2023/12/17 09:06:47;;;;;;;31.77;16.92;;;8.90;99.90;;;;;;4913463;29;20085;-75
2023/12/17 09:09:13;;;;;;;30.52;17.27;;;9.00;99.90;;;;;;4910678;29;20044;-78
2023/12/17 09:11:39;;;;;;;37.33;17.30;;;8.90;99.90;;;;;;4904105;29;20094;-78
2023/12/17 09:14:07;;;;;;;41.38;19.38;;;9.20;99.90;;;;;;4910688;29;20431;-74
2023/12/17 09:16:33;;;;;;;40.13;17.95;;;9.30;99.90;;;;;;4896817;29;20666;-76
2023/12/17 09:18:59;;;;;;;38.08;17.50;;;9.00;99.90;;;;;;4910064;29;20052;-85
2023/12/17 09:21:25;;;;;;;38.40;16.65;;;9.00;99.90;;;;;;4898428;29;20584;-77
2023/12/17 09:23:51;;;;;;;36.10;16.20;;;9.50;99.90;;;;;;4913339;29;20052;-76
2023/12/17 09:26:18;;;;;;;35.45;17.05;;;9.00;99.90;;;;;;4903050;29;20064;-76
2023/12/17 09:28:44;;;;;;;32.38;14.15;;;9.00;99.90;;;;;;4906698;29;20085;-78
2023/12/17 09:31:10;;;;;;;35.00;12.82;;;9.20;99.90;;;;;;4902056;29;20085;-76
2023/12/17 09:33:36;;;;;;;28.00;11.95;;;9.10;99.90;;;;;;4882576;29;20524;-79
2023/12/17 09:36:03;;;;;;;27.00;9.50;;;9.10;99.90;;;;;;4903187;29;20080;-82
2023/12/17 09:38:29;;;;;;;29.85;10.98;;;9.10;99.90;;;;;;4911104;29;20103;-76
2023/12/17 09:40:55;;;;;;;23.63;11.35;;;9.10;99.90;;;;;;4906671;29;20052;-75
2023/12/17 09:43:24;;;;;;;28.77;12.05;;;9.10;99.90;;;;;;4907827;29;20045;-80
2023/12/17 09:45:51;;;;;;;32.70;11.25;;;9.10;99.90;;;;;;4907592;29;20052;-80
2023/12/17 09:48:17;;;;;;;31.17;11.52;;;9.10;99.90;;;;;;4914879;29;20052;-81
2023/12/17 09:50:43;;;;;;;26.27;11.00;;;9.20;99.90;;;;;;4914394;29;20452;-75
2023/12/17 09:53:09;;;;;;;24.63;9.63;;;9.10;99.90;;;;;;4908156;29;20138;-82
2023/12/17 09:55:35;;;;;;;31.17;11.85;;;9.30;99.90;;;;;;4898756;29;20116;-75
2023/12/17 09:58:04;;;;;;;24.15;8.90;;;9.20;99.90;;;;;;4902737;29;20052;-75
2023/12/17 10:00:31;;;;;;;26.67;10.00;;;9.20;99.90;;;;;;4901267;29;20076;-77
2023/12/17 10:03:04;;;;;;;21.08;10.13;;;9.60;99.90;;;;;;4901039;29;20506;-84
2023/12/17 10:05:30;;;;;;;24.05;10.30;;;9.20;99.90;;;;;;4898425;29;20139;-74
2023/12/17 10:07:56;;;;;;;26.45;10.93;;;9.20;99.90;;;;;;4890001;29;20393;-79
2023/12/17 10:10:22;;;;;;;26.50;9.85;;;9.70;99.90;;;;;;4898142;29;20048;-76
2023/12/17 10:12:47;;;;;;;28.38;11.13;;;9.80;99.90;;;;;;4898006;29;20056;-77
2023/12/17 10:15:13;;;;;;;23.25;11.88;;;9.90;99.90;;;;;;4897121;29;20086;-77
2023/12/17 10:17:40;;;;;;;19.60;9.50;;;9.20;99.90;;;;;;4894462;29;20113;-76
2023/12/17 10:20:07;;;;;;;35.03;11.75;;;9.60;99.90;;;;;;4903102;29;20099;-75
2023/12/17 10:22:32;;;;;;;23.20;12.93;;;9.20;99.90;;;;;;4893949;29;20480;-88
2023/12/17 10:24:58;;;;;;;23.02;11.82;;;9.20;99.90;;;;;;4900868;29;20048;-83
2023/12/17 10:27:24;;;;;;;29.50;14.85;;;9.50;99.90;;;;;;4905566;29;20053;-82
2023/12/17 10:29:51;;;;;;;31.67;16.40;;;9.20;99.90;;;;;;4911774;29;20127;-78
2023/12/17 10:32:22;;;;;;;33.05;17.55;;;9.40;99.90;;;;;;4917306;29;20095;-77
2023/12/17 10:34:50;;;;;;;29.02;13.70;;;9.20;99.90;;;;;;4916178;29;20052;-90
2023/12/17 10:37:20;;;;;;;30.35;17.27;;;9.30;99.90;;;;;;4916345;29;20048;-78
2023/12/17 10:39:48;;;;;;;29.92;16.27;;;9.20;99.90;;;;;;4912933;29;20508;-76
2023/12/17 10:42:16;;;;;;;33.22;16.77;;;9.70;99.90;;;;;;4908832;29;20056;-77
2023/12/17 10:44:43;;;;;;;33.20;18.65;;;9.20;99.90;;;;;;4914168;29;20114;-87
2023/12/17 10:47:11;;;;;;;33.45;19.85;;;9.20;99.90;;;;;;4913643;29;20096;-81
2023/12/17 10:49:37;;;;;;;35.90;18.88;;;9.20;99.90;;;;;;4900865;29;20049;-81
2023/12/17 10:52:03;;;;;;;37.05;17.67;;;9.20;99.90;;;;;;4907733;29;20350;-83
2023/12/17 10:54:30;;;;;;;38.00;18.70;;;9.20;99.90;;;;;;4909319;29;20155;-79
2023/12/17 10:56:59;;;;;;;32.15;20.05;;;9.20;99.90;;;;;;4906044;29;20056;-75
2023/12/17 10:59:29;;;;;;;35.78;21.23;;;9.30;99.90;;;;;;4917253;29;20059;-76
2023/12/17 11:01:57;;;;;;;31.17;17.85;;;9.30;99.90;;;;;;4915321;29;20044;-76
2023/12/17 11:04:23;;;;;;;30.95;17.98;;;9.60;99.90;;;;;;4900098;29;20507;-76
2023/12/17 11:06:50;;;;;;;30.38;17.48;;;9.30;99.90;;;;;;4904619;29;20088;-80
2023/12/17 11:09:16;;;;;;;34.67;17.90;;;9.30;99.90;;;;;;4908765;29;20043;-81
2023/12/17 11:11:42;;;;;;;29.05;16.80;;;9.30;99.90;;;;;;4903236;29;20040;-78
2023/12/17 11:14:12;;;;;;;36.92;18.45;;;9.30;99.90;;;;;;4903234;29;20048;-83
2023/12/17 11:16:39;;;;;;;31.63;18.50;;;9.40;99.90;;;;;;4901969;29;20041;-76
2023/12/17 11:19:05;;;;;;;27.70;15.52;;;9.40;99.90;;;;;;4903473;29;20504;-76
2023/12/17 11:21:32;;;;;;;28.45;17.83;;;9.30;99.90;;;;;;4904571;29;20048;-76
2023/12/17 11:23:58;;;;;;;28.27;14.93;;;10.00;99.90;;;;;;4885808;29;20048;-77
2023/12/17 11:26:24;;;;;;;35.25;18.42;;;9.30;99.90;;;;;;4901920;29;20067;-75
2023/12/17 11:28:50;;;;;;;25.50;14.50;;;9.70;99.90;;;;;;4901149;29;20145;-75
2023/12/17 11:31:16;;;;;;;27.65;16.95;;;9.60;99.90;;;;;;4896312;29;20053;-76
2023/12/17 11:33:42;;;;;;;31.35;16.50;;;9.80;99.90;;;;;;4906545;29;20090;-75
2023/12/17 11:36:10;;;;;;;24.65;15.45;;;9.60;99.90;;;;;;4903434;29;20059;-77
2023/12/17 11:38:36;;;;;;;28.92;15.68;;;9.30;99.90;;;;;;4900721;29;20131;-75
2023/12/17 11:41:05;;;;;;;27.52;14.48;;;9.30;99.90;;;;;;4899520;29;20051;-85
2023/12/17 11:43:31;;;;;;;26.13;15.40;;;9.40;99.90;;;;;;4898122;29;20127;-75
2023/12/17 11:45:58;;;;;;;27.23;15.45;;;9.40;99.90;;;;;;4909730;29;20828;-74
2023/12/17 11:48:25;;;;;;;26.58;14.77;;;9.30;99.90;;;;;;4915692;29;20055;-77
2023/12/17 11:50:56;;;;;;;28.88;15.27;;;9.40;99.90;;;;;;4906286;29;20477;-85
2023/12/17 11:53:24;;;;;;;25.13;15.45;;;9.40;99.90;;;;;;4898350;29;20056;-81
2023/12/17 11:55:55;;;;;;;20.88;14.63;;;9.30;99.90;;;;;;4897929;29;20056;-76
2023/12/17 11:58:22;;;;;;;26.77;15.38;;;9.30;99.90;;;;;;4903776;29;20052;-80
2023/12/17 12:01:00;;;;;;;24.70;13.65;;;9.40;99.90;;;;;;4911758;29;20413;-75
2023/12/17 12:03:27;;;;;;;29.42;15.35;;;9.80;99.90;;;;;;4909991;29;20377;-80
2023/12/17 12:06:04;;;;;;;25.25;15.25;;;9.40;99.90;;;;;;4907834;29;20123;-76
2023/12/17 12:08:40;;;;;;;22.67;14.23;;;9.30;99.90;;;;;;4915848;29;20071;-75
2023/12/17 12:11:07;;;;;;;30.33;15.02;;;9.30;99.90;;;;;;4909507;29;20468;-88
2023/12/17 12:13:37;;;;;;;25.70;16.08;;;9.40;99.90;;;;;;4913714;29;20111;-75
2023/12/17 12:16:04;;;;;;;34.45;17.70;;;9.30;99.90;;;;;;4906402;29;20139;-84
2023/12/17 12:18:29;;;;;;;30.67;17.88;;;9.30;99.90;;;;;;4897621;29;20936;-77
2023/12/17 12:20:55;;;;;;;23.70;14.82;;;9.40;99.90;;;;;;4918855;29;20060;-84
2023/12/17 12:23:21;;;;;;;31.45;17.98;;;9.30;99.90;;;;;;4899869;29;20496;-81
2023/12/17 12:25:47;;;;;;;27.55;17.58;;;9.30;99.90;;;;;;4907289;29;20048;-85
2023/12/17 12:28:20;;;;;;;30.90;18.85;;;9.30;99.90;;;;;;4906795;29;20108;-79
2023/12/17 12:30:47;;;;;;;27.50;16.83;;;9.20;99.90;;;;;;4908005;29;20044;-86
2023/12/17 12:33:14;;;;;;;25.45;15.10;;;9.30;99.90;;;;;;4899908;29;20049;-74
2023/12/17 12:35:41;;;;;;;31.67;18.35;;;9.30;99.90;;;;;;4911059;29;20120;-74
2023/12/17 12:38:25;;;;;;;25.73;16.17;;;9.30;99.90;;;;;;4907726;29;20052;-75